PWSweather.com
Personal Weather Stations
Station Observations
PWSTHORN2
Thornton, Nh Usa, Thornton, NH 03285

Thornton, Nh UsaThornton, NH 03285

Lat: 43.8870699, Lon: -71.6632763

Elevation: 640

Station Type: Ambient WS 2080

Latest ConditionsUpdated 8:00:02 AM EDT Friday, Jun 23, 2017
Currently Today's Max Today's Min Today's Average
Temperature 60.8°F16.0°C 61.0°F16.1°C 59.2°F15.1°C 60.3°F15.7°C
Dew Point 39.3°F4.1°C 39.5°F4.2°C 37.9°F3.3°C 38.9°F3.8°C
Winds 3.1 mph E5.0 kmh E 3.1 mph E5.0 kmh E - 0.6 mph 1.0 kmh
Wind Gusts 3.8 mph6.1 kmh 3.8 mph6.1 kmh - -
Humidity 45% 45% 45% 45%
Pressure 29.40 in995.6 mb 29.40 in995.6 mb 29.40 in995.6 mb -
Precipitation - 0.06 in1.5 mm - -
Hour Temp Dew Point Humidity Winds Wind Gusts Pressure Precip Precip Rate Daily Precip Total
08:00 AM 60.8°F16.0°C 39.3°F4.1°C 45% 3.1 mph E5.0 kmh E 3.8 mph6.1 kmh 29.40 in995.6 mb 0.05 in1.3 mm 0.03 in0.8 mm 0.06 in1.5 mm
07:55 AM 60.8°F16.0°C 39.3°F4.1°C 45% 0.7 mph E1.1 kmh E 3.1 mph5.0 kmh 29.40 in995.6 mb 0.02 in0.5 mm 0.12 in3.0 mm 0.04 in1.0 mm
07:50 AM 60.8°F16.0°C 39.3°F4.1°C 45% 0.7 mph E1.1 kmh E 2.2 mph3.5 kmh 29.40 in995.6 mb 0.01 in0.3 mm 0.12 in3.0 mm 0.02 in0.5 mm
07:45 AM 60.6°F15.9°C 39.2°F4.0°C 45% Calm Calm 1.6 mph2.6 kmh 29.40 in995.6 mb 0.00 in0.0 mm 0.00 in0.0 mm 0.01 in0.3 mm
07:40 AM 60.6°F15.9°C 39.2°F4.0°C 45% Calm Calm 2.2 mph3.5 kmh 29.40 in995.6 mb 0.00 in0.0 mm 0.00 in0.0 mm 0.01 in0.3 mm
07:35 AM 60.4°F15.8°C 39.0°F3.9°C 45% 0.7 mph E1.1 kmh E 2.2 mph3.5 kmh 29.40 in995.6 mb 0.00 in0.0 mm 0.00 in0.0 mm 0.01 in0.3 mm
07:30 AM 60.3°F15.7°C 38.8°F3.8°C 45% 0.7 mph E1.1 kmh E 2.2 mph3.5 kmh 29.40 in995.6 mb 0.00 in0.0 mm 0.00 in0.0 mm 0.01 in0.3 mm
07:25 AM 60.3°F15.7°C 38.8°F3.8°C 45% 0.7 mph E1.1 kmh E 2.2 mph3.5 kmh 29.40 in995.6 mb 0.01 in0.3 mm 0.00 in0.0 mm 0.01 in0.3 mm
07:20 AM 60.3°F15.7°C 38.8°F3.8°C 45% 0.7 mph E1.1 kmh E 2.2 mph3.5 kmh 29.40 in995.6 mb 0.01 in0.3 mm 0.00 in0.0 mm 0.01 in0.3 mm
07:15 AM 60.1°F15.6°C 38.7°F3.7°C 45% 0.7 mph E1.1 kmh E 3.1 mph5.0 kmh 29.40 in995.6 mb 0.01 in0.3 mm 0.00 in0.0 mm 0.01 in0.3 mm
07:10 AM 60.1°F15.6°C 38.7°F3.7°C 45% 1.6 mph E2.6 kmh E 3.1 mph5.0 kmh 29.40 in995.6 mb 0.01 in0.3 mm 0.00 in0.0 mm 0.01 in0.3 mm
07:05 AM 60.1°F15.6°C 38.7°F3.7°C 45% 1.6 mph E2.6 kmh E 3.8 mph6.1 kmh 29.40 in995.6 mb 0.01 in0.3 mm 0.00 in0.0 mm 0.01 in0.3 mm
07:00 AM 60.1°F15.6°C 38.7°F3.7°C 45% 2.2 mph E3.5 kmh E 3.8 mph6.1 kmh 29.40 in995.6 mb 0.01 in0.3 mm 0.00 in0.0 mm 0.01 in0.3 mm
06:55 AM 60.3°F15.7°C 38.8°F3.8°C 45% 1.6 mph E2.6 kmh E 3.8 mph6.1 kmh 29.40 in995.6 mb 0.01 in0.3 mm 0.00 in0.0 mm 0.01 in0.3 mm
06:50 AM 60.3°F15.7°C 38.8°F3.8°C 45% 0.7 mph E1.1 kmh E 3.8 mph6.1 kmh 29.40 in995.6 mb 0.01 in0.3 mm 0.00 in0.0 mm 0.01 in0.3 mm
06:45 AM 60.4°F15.8°C 39.0°F3.9°C 45% 2.2 mph E3.5 kmh E 3.8 mph6.1 kmh 29.40 in995.6 mb 0.01 in0.3 mm 0.00 in0.0 mm 0.01 in0.3 mm
06:40 AM 60.4°F15.8°C 39.0°F3.9°C 45% 0.7 mph E1.1 kmh E 2.2 mph3.5 kmh 29.40 in995.6 mb 0.01 in0.3 mm 0.00 in0.0 mm 0.01 in0.3 mm
06:35 AM 60.4°F15.8°C 39.0°F3.9°C 45% Calm Calm 1.6 mph2.6 kmh 29.40 in995.6 mb 0.01 in0.3 mm 0.12 in3.0 mm 0.01 in0.3 mm
06:30 AM 60.4°F15.8°C 39.0°F3.9°C 45% Calm Calm 0.7 mph1.1 kmh 29.40 in995.6 mb 0.00 in0.0 mm 0.00 in0.0 mm 0.00 in0.0 mm
06:25 AM 60.4°F15.8°C 39.0°F3.9°C 45% Calm Calm 0.7 mph1.1 kmh 29.40 in995.6 mb 0.00 in0.0 mm 0.00 in0.0 mm 0.00 in0.0 mm
06:20 AM 60.3°F15.7°C 38.8°F3.8°C 45% Calm Calm 1.6 mph2.6 kmh 29.40 in995.6 mb 0.00 in0.0 mm 0.00 in0.0 mm 0.00 in0.0 mm
06:15 AM 60.3°F15.7°C 38.8°F3.8°C 45% Calm Calm 1.6 mph2.6 kmh 29.40 in995.6 mb 0.00 in0.0 mm 0.00 in0.0 mm 0.00 in0.0 mm
06:10 AM 60.4°F15.8°C 39.0°F3.9°C 45% 0.7 mph E1.1 kmh E 2.2 mph3.5 kmh 29.40 in995.6 mb 0.00 in0.0 mm 0.00 in0.0 mm 0.00 in0.0 mm
06:05 AM 60.4°F15.8°C 39.0°F3.9°C 45% 0.7 mph E1.1 kmh E 2.2 mph3.5 kmh 29.40 in995.6 mb 0.00 in0.0 mm 0.00 in0.0 mm 0.00 in0.0 mm
06:00 AM 60.4°F15.8°C 39.0°F3.9°C 45% Calm Calm 2.2 mph3.5 kmh 29.40 in995.6 mb 0.00 in0.0 mm 0.00 in0.0 mm 0.00 in0.0 mm
05:55 AM 60.4°F15.8°C 39.0°F3.9°C 45% 0.7 mph E1.1 kmh E 3.1 mph5.0 kmh 29.40 in995.6 mb 0.00 in0.0 mm 0.00 in0.0 mm 0.00 in0.0 mm
05:50 AM 60.6°F15.9°C 39.2°F4.0°C 45% 0.7 mph E1.1 kmh E 3.1 mph5.0 kmh 29.40 in995.6 mb 0.00 in0.0 mm 0.00 in0.0 mm 0.00 in0.0 mm
05:45 AM 60.6°F15.9°C 39.2°F4.0°C 45% 0.7 mph E1.1 kmh E 3.8 mph6.1 kmh 29.40 in995.6 mb 0.00 in0.0 mm 0.00 in0.0 mm 0.00 in0.0 mm
05:40 AM 60.6°F15.9°C 39.2°F4.0°C 45% 1.6 mph E2.6 kmh E 3.8 mph6.1 kmh 29.40 in995.6 mb 0.00 in0.0 mm 0.00 in0.0 mm 0.00 in0.0 mm
05:35 AM 60.6°F15.9°C 39.2°F4.0°C 45% 2.2 mph E3.5 kmh E 3.8 mph6.1 kmh 29.40 in995.6 mb 0.00 in0.0 mm 0.00 in0.0 mm 0.00 in0.0 mm
05:30 AM 60.4°F15.8°C 39.0°F3.9°C 45% 0.7 mph E1.1 kmh E 3.1 mph5.0 kmh 29.40 in995.6 mb 0.00 in0.0 mm 0.00 in0.0 mm 0.00 in0.0 mm
05:25 AM 60.4°F15.8°C 39.0°F3.9°C 45% 1.6 mph E2.6 kmh E 3.1 mph5.0 kmh 29.40 in995.6 mb 0.00 in0.0 mm 0.00 in0.0 mm 0.00 in0.0 mm
05:20 AM 60.6°F15.9°C 39.2°F4.0°C 45% Calm Calm 3.1 mph5.0 kmh 29.40 in995.6 mb 0.00 in0.0 mm 0.00 in0.0 mm 0.00 in0.0 mm
05:15 AM 60.8°F16.0°C 39.3°F4.1°C 45% 0.7 mph E1.1 kmh E 3.1 mph5.0 kmh 29.40 in995.6 mb 0.00 in0.0 mm 0.00 in0.0 mm 0.00 in0.0 mm
05:10 AM 60.8°F16.0°C 39.3°F4.1°C 45% 1.6 mph E2.6 kmh E 3.1 mph5.0 kmh 29.40 in995.6 mb 0.00 in0.0 mm 0.00 in0.0 mm 0.00 in0.0 mm
05:05 AM 60.8°F16.0°C 39.3°F4.1°C 45% 1.6 mph E2.6 kmh E 3.1 mph5.0 kmh 29.40 in995.6 mb 0.00 in0.0 mm 0.00 in0.0 mm 0.00 in0.0 mm
05:00 AM 60.8°F16.0°C 39.3°F4.1°C 45% 1.6 mph E2.6 kmh E 3.1 mph5.0 kmh 29.40 in995.6 mb 0.00 in0.0 mm 0.00 in0.0 mm 0.00 in0.0 mm
04:55 AM 60.6°F15.9°C 39.2°F4.0°C 45% 1.6 mph E2.6 kmh E 2.2 mph3.5 kmh 29.40 in995.6 mb 0.00 in0.0 mm 0.00 in0.0 mm 0.00 in0.0 mm
04:50 AM 60.6°F15.9°C 39.2°F4.0°C 45% 1.6 mph E2.6 kmh E 2.2 mph3.5 kmh 29.40 in995.6 mb 0.00 in0.0 mm 0.00 in0.0 mm 0.00 in0.0 mm
04:45 AM 60.4°F15.8°C 39.0°F3.9°C 45% 0.7 mph E1.1 kmh E 1.6 mph2.6 kmh 29.40 in995.6 mb 0.00 in0.0 mm 0.00 in0.0 mm 0.00 in0.0 mm
04:40 AM 60.4°F15.8°C 39.0°F3.9°C 45% Calm Calm 3.1 mph5.0 kmh 29.40 in995.6 mb 0.00 in0.0 mm 0.00 in0.0 mm 0.00 in0.0 mm
04:35 AM 60.6°F15.9°C 39.2°F4.0°C 45% 0.7 mph E1.1 kmh E 3.1 mph5.0 kmh 29.40 in995.6 mb 0.00 in0.0 mm 0.00 in0.0 mm 0.00 in0.0 mm
04:30 AM 60.8°F16.0°C 39.3°F4.1°C 45% 0.7 mph E1.1 kmh E 2.2 mph3.5 kmh 29.40 in995.6 mb 0.00 in0.0 mm 0.00 in0.0 mm 0.00 in0.0 mm
04:25 AM 60.8°F16.0°C 39.3°F4.1°C 45% Calm Calm 1.6 mph2.6 kmh 29.40 in995.6 mb 0.00 in0.0 mm 0.00 in0.0 mm 0.00 in0.0 mm
04:20 AM 60.8°F16.0°C 39.3°F4.1°C 45% 0.7 mph E1.1 kmh E 1.6 mph2.6 kmh 29.40 in995.6 mb 0.00 in0.0 mm 0.00 in0.0 mm 0.00 in0.0 mm
04:15 AM 61.0°F16.1°C 39.5°F4.2°C 45% Calm Calm 2.2 mph3.5 kmh 29.40 in995.6 mb 0.00 in0.0 mm 0.00 in0.0 mm 0.00 in0.0 mm
04:10 AM 61.0°F16.1°C 39.5°F4.2°C 45% Calm Calm 2.2 mph3.5 kmh 29.40 in995.6 mb 0.00 in0.0 mm 0.00 in0.0 mm 0.00 in0.0 mm
04:05 AM 61.0°F16.1°C 39.5°F4.2°C 45% 0.7 mph E1.1 kmh E 2.2 mph3.5 kmh 29.40 in995.6 mb 0.00 in0.0 mm 0.00 in0.0 mm 0.00 in0.0 mm
04:00 AM 60.8°F16.0°C 39.3°F4.1°C 45% 0.7 mph E1.1 kmh E 2.2 mph3.5 kmh 29.40 in995.6 mb 0.00 in0.0 mm 0.00 in0.0 mm 0.00 in0.0 mm
03:55 AM 60.6°F15.9°C 39.2°F4.0°C 45% Calm Calm 1.6 mph2.6 kmh 29.40 in995.6 mb 0.00 in0.0 mm 0.00 in0.0 mm 0.00 in0.0 mm
03:50 AM 60.6°F15.9°C 39.2°F4.0°C 45% Calm Calm 1.6 mph2.6 kmh 29.40 in995.6 mb 0.00 in0.0 mm 0.00 in0.0 mm 0.00 in0.0 mm
03:45 AM 60.6°F15.9°C 39.2°F4.0°C 45% Calm Calm 2.2 mph3.5 kmh 29.40 in995.6 mb 0.00 in0.0 mm 0.00 in0.0 mm 0.00 in0.0 mm
03:40 AM 60.6°F15.9°C 39.2°F4.0°C 45% 0.7 mph E1.1 kmh E 2.2 mph3.5 kmh 29.40 in995.6 mb 0.00 in0.0 mm 0.00 in0.0 mm 0.00 in0.0 mm
03:35 AM 60.6°F15.9°C 39.2°F4.0°C 45% 0.7 mph E1.1 kmh E 2.2 mph3.5 kmh 29.40 in995.6 mb 0.00 in0.0 mm 0.00 in0.0 mm 0.00 in0.0 mm
03:30 AM 60.4°F15.8°C 39.0°F3.9°C 45% 0.7 mph E1.1 kmh E 2.2 mph3.5 kmh 29.40 in995.6 mb 0.00 in0.0 mm 0.00 in0.0 mm 0.00 in0.0 mm
03:25 AM 60.3°F15.7°C 38.8°F3.8°C 45% 1.6 mph E2.6 kmh E 2.2 mph3.5 kmh 29.40 in995.6 mb 0.00 in0.0 mm 0.00 in0.0 mm 0.00 in0.0 mm
03:20 AM 60.3°F15.7°C 38.8°F3.8°C 45% 0.7 mph E1.1 kmh E 3.1 mph5.0 kmh 29.40 in995.6 mb 0.00 in0.0 mm 0.00 in0.0 mm 0.00 in0.0 mm
03:15 AM 60.3°F15.7°C 38.8°F3.8°C 45% Calm Calm 3.1 mph5.0 kmh 29.40 in995.6 mb 0.00 in0.0 mm 0.00 in0.0 mm 0.00 in0.0 mm
03:10 AM 60.3°F15.7°C 38.8°F3.8°C 45% 1.6 mph E2.6 kmh E 3.1 mph5.0 kmh 29.40 in995.6 mb 0.00 in0.0 mm 0.00 in0.0 mm 0.00 in0.0 mm
03:05 AM 60.3°F15.7°C 38.8°F3.8°C 45% 0.7 mph E1.1 kmh E 1.6 mph2.6 kmh 29.40 in995.6 mb 0.00 in0.0 mm 0.00 in0.0 mm 0.00 in0.0 mm
03:00 AM 60.3°F15.7°C 38.8°F3.8°C 45% Calm Calm 3.1 mph5.0 kmh 29.40 in995.6 mb 0.00 in0.0 mm 0.00 in0.0 mm 0.00 in0.0 mm
02:55 AM 60.4°F15.8°C 39.0°F3.9°C 45% 1.6 mph E2.6 kmh E 3.1 mph5.0 kmh 29.40 in995.6 mb 0.00 in0.0 mm 0.00 in0.0 mm 0.00 in0.0 mm
02:50 AM 60.4°F15.8°C 39.0°F3.9°C 45% 0.7 mph E1.1 kmh E 2.2 mph3.5 kmh 29.40 in995.6 mb 0.00 in0.0 mm 0.00 in0.0 mm 0.00 in0.0 mm
02:45 AM 60.6°F15.9°C 39.2°F4.0°C 45% 0.7 mph E1.1 kmh E 2.2 mph3.5 kmh 29.40 in995.6 mb 0.00 in0.0 mm 0.00 in0.0 mm 0.00 in0.0 mm
02:40 AM 60.6°F15.9°C 39.2°F4.0°C 45% 0.7 mph E1.1 kmh E 2.2 mph3.5 kmh 29.40 in995.6 mb 0.00 in0.0 mm 0.00 in0.0 mm 0.00 in0.0 mm
02:35 AM 60.4°F15.8°C 39.0°F3.9°C 45% 1.6 mph E2.6 kmh E 3.1 mph5.0 kmh 29.40 in995.6 mb 0.00 in0.0 mm 0.00 in0.0 mm 0.00 in0.0 mm
02:30 AM 60.4°F15.8°C 39.0°F3.9°C 45% 1.6 mph E2.6 kmh E 3.1 mph5.0 kmh 29.40 in995.6 mb 0.00 in0.0 mm 0.00 in0.0 mm 0.00 in0.0 mm
02:25 AM 60.3°F15.7°C 38.8°F3.8°C 45% 1.6 mph E2.6 kmh E 3.1 mph5.0 kmh 29.40 in995.6 mb 0.00 in0.0 mm 0.00 in0.0 mm 0.00 in0.0 mm
02:20 AM 60.3°F15.7°C 38.8°F3.8°C 45% 0.7 mph E1.1 kmh E 3.1 mph5.0 kmh 29.40 in995.6 mb 0.00 in0.0 mm 0.00 in0.0 mm 0.00 in0.0 mm
02:15 AM 60.3°F15.7°C 38.8°F3.8°C 45% 1.6 mph E2.6 kmh E 3.1 mph5.0 kmh 29.40 in995.6 mb 0.00 in0.0 mm 0.00 in0.0 mm 0.00 in0.0 mm
02:10 AM 60.3°F15.7°C 38.8°F3.8°C 45% 0.7 mph E1.1 kmh E 1.6 mph2.6 kmh 29.40 in995.6 mb 0.00 in0.0 mm 0.00 in0.0 mm 0.00 in0.0 mm
02:05 AM 60.1°F15.6°C 38.7°F3.7°C 45% Calm Calm 2.2 mph3.5 kmh 29.40 in995.6 mb 0.00 in0.0 mm 0.00 in0.0 mm 0.00 in0.0 mm
02:00 AM 59.9°F15.5°C 38.5°F3.6°C 45% Calm Calm 2.2 mph3.5 kmh 29.40 in995.6 mb 0.00 in0.0 mm 0.00 in0.0 mm 0.00 in0.0 mm
01:55 AM 60.1°F15.6°C 38.7°F3.7°C 45% Calm Calm 1.6 mph2.6 kmh 29.40 in995.6 mb 0.00 in0.0 mm 0.00 in0.0 mm 0.00 in0.0 mm
01:50 AM 60.1°F15.6°C 38.7°F3.7°C 45% 0.7 mph E1.1 kmh E 1.6 mph2.6 kmh 29.40 in995.6 mb 0.00 in0.0 mm 0.00 in0.0 mm 0.00 in0.0 mm
01:45 AM 60.3°F15.7°C 38.8°F3.8°C 45% Calm Calm 1.6 mph2.6 kmh 29.40 in995.6 mb 0.00 in0.0 mm 0.00 in0.0 mm 0.00 in0.0 mm
01:40 AM 60.3°F15.7°C 38.8°F3.8°C 45% Calm Calm 1.6 mph2.6 kmh 29.40 in995.6 mb 0.00 in0.0 mm 0.00 in0.0 mm 0.00 in0.0 mm
01:35 AM 60.1°F15.6°C 38.7°F3.7°C 45% Calm Calm 1.6 mph2.6 kmh 29.40 in995.6 mb 0.00 in0.0 mm 0.00 in0.0 mm 0.00 in0.0 mm
01:30 AM 60.3°F15.7°C 38.8°F3.8°C 45% 0.7 mph E1.1 kmh E 1.6 mph2.6 kmh 29.40 in995.6 mb 0.00 in0.0 mm 0.00 in0.0 mm 0.00 in0.0 mm
01:25 AM 60.4°F15.8°C 39.0°F3.9°C 45% Calm Calm 1.6 mph2.6 kmh 29.40 in995.6 mb 0.00 in0.0 mm 0.00 in0.0 mm 0.00 in0.0 mm
01:20 AM 60.4°F15.8°C 39.0°F3.9°C 45% Calm Calm 1.6 mph2.6 kmh 29.40 in995.6 mb 0.00 in0.0 mm 0.00 in0.0 mm 0.00 in0.0 mm
01:15 AM 60.3°F15.7°C 38.8°F3.8°C 45% Calm Calm 0.7 mph1.1 kmh 29.40 in995.6 mb 0.00 in0.0 mm 0.00 in0.0 mm 0.00 in0.0 mm
01:10 AM 60.3°F15.7°C 38.8°F3.8°C 45% Calm Calm 1.6 mph2.6 kmh 29.40 in995.6 mb 0.00 in0.0 mm 0.00 in0.0 mm 0.00 in0.0 mm
01:05 AM 60.3°F15.7°C 38.8°F3.8°C 45% Calm Calm 2.2 mph3.5 kmh 29.40 in995.6 mb 0.00 in0.0 mm 0.00 in0.0 mm 0.00 in0.0 mm
01:00 AM 60.1°F15.6°C 38.7°F3.7°C 45% Calm Calm 2.2 mph3.5 kmh 29.40 in995.6 mb 0.00 in0.0 mm 0.00 in0.0 mm 0.00 in0.0 mm
12:55 AM 59.9°F15.5°C 38.5°F3.6°C 45% Calm Calm 1.6 mph2.6 kmh 29.40 in995.6 mb 0.00 in0.0 mm 0.00 in0.0 mm 0.00 in0.0 mm
12:50 AM 59.5°F15.3°C 38.2°F3.4°C 45% Calm Calm 1.6 mph2.6 kmh 29.40 in995.6 mb 0.00 in0.0 mm 0.00 in0.0 mm 0.00 in0.0 mm
12:45 AM 59.5°F15.3°C 38.2°F3.4°C 45% Calm Calm 1.6 mph2.6 kmh 29.40 in995.6 mb 0.00 in0.0 mm 0.00 in0.0 mm 0.00 in0.0 mm
12:40 AM 59.5°F15.3°C 38.2°F3.4°C 45% Calm Calm 1.6 mph2.6 kmh 29.40 in995.6 mb 0.00 in0.0 mm 0.00 in0.0 mm 0.00 in0.0 mm
12:35 AM 59.5°F15.3°C 38.2°F3.4°C 45% Calm Calm 2.2 mph3.5 kmh 29.40 in995.6 mb 0.00 in0.0 mm 0.00 in0.0 mm 0.00 in0.0 mm
12:30 AM 59.5°F15.3°C 38.2°F3.4°C 45% Calm Calm 2.2 mph3.5 kmh 29.40 in995.6 mb 0.00 in0.0 mm 0.00 in0.0 mm 0.00 in0.0 mm
12:25 AM 59.9°F15.5°C 38.5°F3.6°C 45% Calm Calm 1.6 mph2.6 kmh 29.40 in995.6 mb 0.00 in0.0 mm 0.00 in0.0 mm 0.00 in0.0 mm
12:20 AM 60.1°F15.6°C 38.7°F3.7°C 45% 0.7 mph E1.1 kmh E 1.6 mph2.6 kmh 29.40 in995.6 mb 0.00 in0.0 mm 0.00 in0.0 mm 0.00 in0.0 mm
12:15 AM 59.9°F15.5°C 38.5°F3.6°C 45% Calm Calm 1.6 mph2.6 kmh 29.40 in995.6 mb 0.00 in0.0 mm 0.00 in0.0 mm 0.00 in0.0 mm
12:10 AM 59.7°F15.4°C 38.4°F3.6°C 45% Calm Calm 2.2 mph3.5 kmh 29.40 in995.6 mb 0.00 in0.0 mm 0.00 in0.0 mm 0.00 in0.0 mm
12:05 AM 59.5°F15.3°C 38.2°F3.4°C 45% Calm Calm 2.2 mph3.5 kmh 29.40 in995.6 mb 0.00 in0.0 mm 0.00 in0.0 mm 0.00 in0.0 mm
12:00 AM 59.2°F15.1°C 37.9°F3.3°C 45% 0.7 mph E1.1 kmh E 2.2 mph3.5 kmh 29.40 in995.6 mb 0.00 in0.0 mm 0.00 in0.0 mm 0.00 in0.0 mm